Time;durP1;ratioP1;P1;durP2;ratioP2;P2;SDS_P1;SDS_P2;PMS_P1;PMS_P2;Temp;Humidity;BMP_temperature;BMP_pressure;BME280_temperature;BME280_humidity;BME280_pressure;Samples;Min_cycle;Max_cycle;Signal;HPM_P1;HPM_P2
2023/06/06 00:00:34;;;;;;;14.77;8.20;;;;;;;12.59;100.00;101775.03;10528844;28;20032;-79
2023/06/06 00:05:34;;;;;;;16.67;6.80;;;;;;;12.57;100.00;101768.81;10511559;28;20035;-80
2023/06/06 00:10:35;;;;;;;15.05;8.25;;;;;;;12.44;100.00;101771.59;10510851;28;20110;-79
2023/06/06 00:15:36;;;;;;;13.05;7.45;;;;;;;12.37;100.00;101767.72;10511318;28;20032;-80
2023/06/06 00:20:36;;;;;;;16.67;8.85;;;;;;;12.25;100.00;101770.56;10528625;28;20074;-80
2023/06/06 00:25:37;;;;;;;16.77;8.02;;;;;;;12.19;100.00;101772.84;10528310;28;20488;-79
2023/06/06 00:30:37;;;;;;;13.77;7.65;;;;;;;11.99;100.00;101780.47;10511055;28;20046;-79
2023/06/06 00:35:38;;;;;;;17.63;9.35;;;;;;;11.92;100.00;101773.09;10527179;28;20353;-79
2023/06/06 00:40:38;;;;;;;17.35;7.07;;;;;;;11.94;100.00;101779.31;10509258;28;20040;-79
2023/06/06 00:45:39;;;;;;;16.17;8.25;;;;;;;11.98;100.00;101772.53;10527379;28;20567;-78
2023/06/06 00:50:40;;;;;;;16.55;8.00;;;;;;;11.95;100.00;101770.63;10510404;28;20131;-79
2023/06/06 00:55:41;;;;;;;14.48;7.85;;;;;;;11.87;100.00;101775.47;10508423;28;20063;-79
2023/06/06 01:00:42;;;;;;;17.08;9.68;;;;;;;11.72;100.00;101777.22;10492525;28;20105;-79
2023/06/06 01:05:42;;;;;;;14.40;8.82;;;;;;;11.69;100.00;101780.53;10509903;28;20064;-78
2023/06/06 01:10:43;;;;;;;14.27;7.35;;;;;;;11.58;100.00;101781.63;10491396;28;20040;-78
2023/06/06 01:15:56;;;;;;;15.23;8.55;;;;;;;11.51;100.00;101779.47;10472680;28;21687;-79
2023/06/06 01:20:56;;;;;;;19.35;9.63;;;;;;;11.37;100.00;101789.16;10495363;28;20392;-76
2023/06/06 01:25:57;;;;;;;14.77;8.65;;;;;;;11.28;100.00;101776.41;10522387;28;20044;-76
2023/06/06 01:30:58;;;;;;;11.68;8.13;;;;;;;11.27;100.00;101782.44;10490748;28;20390;-76
2023/06/06 01:36:15;;;;;;;21.13;9.68;;;;;;;11.17;100.00;101778.41;10461295;28;20041;-77
2023/06/06 01:41:16;;;;;;;32.05;11.38;;;;;;;11.10;100.00;101782.34;10516041;28;20040;-77
2023/06/06 01:46:16;;;;;;;16.42;9.52;;;;;;;11.18;100.00;101776.66;10499381;28;20483;-77
2023/06/06 01:51:17;;;;;;;19.30;8.63;;;;;;;10.99;100.00;101775.56;10504592;28;20060;-77
2023/06/06 01:56:17;;;;;;;15.88;9.13;;;;;;;10.94;100.00;101779.63;10506803;28;20044;-77
2023/06/06 02:01:18;;;;;;;18.67;8.73;;;;;;;10.77;100.00;101775.97;10526424;28;20035;-77
2023/06/06 02:06:19;;;;;;;21.90;8.27;;;;;;;10.62;100.00;101771.59;10466646;28;20490;-77
2023/06/06 02:11:23;;;;;;;13.33;9.60;;;;;;;10.53;100.00;101784.13;10482847;28;20036;-77
2023/06/06 02:16:23;;;;;;;16.45;10.02;;;;;;;10.40;100.00;101785.06;10560838;28;20566;-77
2023/06/06 02:21:24;;;;;;;19.35;9.40;;;;;;;10.39;100.00;101784.16;10526487;28;20048;-77
2023/06/06 02:26:24;;;;;;;18.90;9.63;;;;;;;10.39;100.00;101785.81;10473755;28;20131;-79
2023/06/06 02:31:26;;;;;;;23.88;11.77;;;;;;;10.35;100.00;101782.13;10470204;28;20045;-79
2023/06/06 02:36:29;;;;;;;19.10;9.50;;;;;;;10.27;100.00;101792.09;10496385;28;20032;-79
2023/06/06 02:41:29;;;;;;;14.77;8.63;;;;;;;10.24;100.00;101796.25;10497655;28;20043;-79
2023/06/06 02:46:33;;;;;;;23.23;10.15;;;;;;;10.14;100.00;101793.03;10530086;28;20126;-78
2023/06/06 02:51:33;;;;;;;17.60;10.23;;;;;;;10.11;100.00;101792.84;10531636;28;20169;-79
2023/06/06 02:56:34;;;;;;;25.73;9.68;;;;;;;10.01;100.00;101799.97;10513785;28;20504;-79
2023/06/06 03:01:36;;;;;;;15.13;8.85;;;;;;;9.89;100.00;101800.97;10510849;28;20127;-77
2023/06/06 03:06:36;;;;;;;24.80;10.97;;;;;;;9.79;100.00;101816.88;10505273;28;20498;-78
2023/06/06 03:11:37;;;;;;;18.63;9.88;;;;;;;9.75;100.00;101820.09;10527741;28;20067;-78
2023/06/06 03:16:39;;;;;;;20.40;11.50;;;;;;;9.72;100.00;101819.88;10495018;28;20115;-79
2023/06/06 03:21:41;;;;;;;20.77;9.43;;;;;;;9.55;100.00;101817.97;10471460;28;20051;-79
2023/06/06 03:26:44;;;;;;;19.27;11.20;;;;;;;9.50;100.00;101821.97;10502305;28;20114;-78
2023/06/06 03:31:48;;;;;;;20.25;10.90;;;;;;;9.47;100.00;101811.31;10530608;28;20124;-77
2023/06/06 03:36:51;;;;;;;19.52;11.32;;;;;;;9.52;100.00;101817.75;10509241;28;20502;-79
2023/06/06 03:41:52;;;;;;;24.58;11.00;;;;;;;9.49;100.00;101822.78;10506907;28;20045;-79
2023/06/06 03:46:52;;;;;;;21.02;10.60;;;;;;;9.41;100.00;101821.38;10488651;28;20064;-78
2023/06/06 03:51:53;;;;;;;24.25;11.90;;;;;;;9.34;100.00;101821.75;10474788;28;20115;-79
2023/06/06 03:56:54;;;;;;;23.73;10.80;;;;;;;9.32;100.00;101831.19;10526792;28;20079;-79
2023/06/06 04:01:54;;;;;;;21.92;13.07;;;;;;;9.37;100.00;101832.41;10507059;28;20052;-80
2023/06/06 04:06:55;;;;;;;23.63;10.10;;;;;;;9.59;100.00;101821.69;10504387;28;20131;-79
2023/06/06 04:11:55;;;;;;;20.55;11.85;;;;;;;9.74;100.00;101820.88;10489133;28;20123;-79
2023/06/06 04:16:56;;;;;;;19.85;10.02;;;;;;;9.84;100.00;101826.84;10510404;28;20123;-79
2023/06/06 04:21:57;;;;;;;31.15;12.48;;;;;;;9.94;100.00;101822.22;10509147;28;20387;-78
2023/06/06 04:27:03;;;;;;;19.02;11.63;;;;;;;10.20;100.00;101820.41;10507489;28;20085;-78
2023/06/06 04:32:04;;;;;;;20.63;11.05;;;;;;;10.53;100.00;101807.69;10468899;28;20041;-79
2023/06/06 04:37:04;;;;;;;17.88;10.05;;;;;;;10.80;100.00;101790.16;10452027;28;20037;-78
2023/06/06 04:42:06;;;;;;;18.35;8.30;;;;;;;11.00;100.00;101785.22;10485284;28;20064;-78
2023/06/06 04:47:08;;;;;;;20.52;12.77;;;;;;;11.18;100.00;101785.44;10483277;28;20487;-77
2023/06/06 04:52:10;;;;;;;15.80;8.57;;;;;;;11.41;100.00;101775.41;10468165;28;20029;-79
2023/06/06 04:57:15;;;;;;;20.33;10.17;;;;;;;11.58;100.00;101784.25;10484110;28;20045;-79
2023/06/06 05:02:16;;;;;;;17.38;9.40;;;;;;;11.65;100.00;101793.41;10504059;28;20151;-80
2023/06/06 05:07:16;;;;;;;17.73;9.77;;;;;;;12.11;100.00;101772.44;10531301;28;20036;-80
2023/06/06 05:12:17;;;;;;;19.88;11.70;;;;;;;12.44;100.00;101769.88;10523281;28;20044;-78
2023/06/06 05:17:20;;;;;;;13.75;7.65;;;;;;;13.56;100.00;101762.53;10505764;28;20101;-77
2023/06/06 05:22:20;;;;;;;22.20;9.32;;;;;;;14.13;100.00;101766.09;10510285;28;20040;-78
2023/06/06 05:27:21;;;;;;;15.05;8.80;;;;;;;14.32;100.00;101766.13;10471293;28;20044;-77
2023/06/06 05:32:21;;;;;;;17.98;10.65;;;;;;;14.42;100.00;101770.09;10504881;28;20507;-79
2023/06/06 05:37:22;;;;;;;13.73;7.88;;;;;;;15.06;100.00;101759.78;10523510;28;20071;-79
2023/06/06 05:42:22;;;;;;;16.15;7.82;;;;;;;15.36;100.00;101773.38;10497687;28;20453;-79
2023/06/06 05:47:23;;;;;;;12.85;9.25;;;;;;;15.83;100.00;101770.00;10500625;28;20117;-78
2023/06/06 05:52:24;;;;;;;16.00;9.18;;;;;;;16.37;100.00;101773.91;10521766;28;20119;-79
2023/06/06 05:57:25;;;;;;;14.98;7.75;;;;;;;16.95;100.00;101772.50;10523860;28;20117;-79
2023/06/06 06:02:26;;;;;;;22.60;10.85;;;;;;;17.41;100.00;101772.34;10520542;28;20056;-78
2023/06/06 06:07:28;;;;;;;21.70;11.02;;;;;;;18.55;100.00;101767.13;10521434;28;20115;-79
2023/06/06 06:12:28;;;;;;;16.17;8.80;;;;;;;18.63;100.00;101765.59;10522132;28;20506;-79
2023/06/06 06:17:29;;;;;;;22.07;11.67;;;;;;;19.62;100.00;101767.31;10514665;28;20047;-79
2023/06/06 06:22:29;;;;;;;15.73;9.17;;;;;;;20.14;100.00;101776.53;10515215;28;20119;-80
2023/06/06 06:27:30;;;;;;;17.33;9.83;;;;;;;20.44;98.02;101778.06;10479479;28;20396;-80
2023/06/06 06:32:32;;;;;;;15.95;10.38;;;;;;;20.91;91.77;101779.91;10451079;28;20103;-79
2023/06/06 06:37:36;;;;;;;15.60;9.95;;;;;;;21.26;85.53;101785.00;10439613;28;20060;-80
2023/06/06 06:42:40;;;;;;;14.13;9.75;;;;;;;20.87;94.87;101775.41;10441651;28;20037;-79
2023/06/06 06:47:41;;;;;;;12.02;9.50;;;;;;;21.59;82.17;101778.47;10440151;28;20395;-80
2023/06/06 06:52:43;;;;;;;15.10;10.25;;;;;;;21.84;86.76;101787.81;10473396;28;20033;-79
2023/06/06 06:57:44;;;;;;;15.68;9.35;;;;;;;22.13;80.01;101783.75;10481660;28;20468;-79
2023/06/06 07:02:46;;;;;;;17.05;10.50;;;;;;;22.54;78.01;101790.56;10442184;28;20041;-80
2023/06/06 07:07:47;;;;;;;15.07;8.95;;;;;;;23.24;71.51;101773.59;10422747;28;20103;-79
2023/06/06 07:12:49;;;;;;;22.85;10.05;;;;;;;23.55;68.92;101778.28;10463517;28;20535;-79
2023/06/06 07:17:50;;;;;;;16.10;11.88;;;;;;;23.72;71.02;101781.09;10439700;28;20045;-79
2023/06/06 07:22:53;;;;;;;13.70;9.35;;;;;;;24.22;65.44;101784.13;10498019;28;20090;-79
2023/06/06 07:27:54;;;;;;;17.95;9.38;;;;;;;24.75;67.76;101782.56;10527598;28;20040;-79
2023/06/06 07:32:55;;;;;;;17.42;9.77;;;;;;;24.63;64.87;101770.91;10527856;28;20090;-79
2023/06/06 07:37:56;;;;;;;12.85;9.65;;;;;;;25.06;61.08;101777.31;10494595;28;20194;-79
2023/06/06 07:42:58;;;;;;;19.03;9.57;;;;;;;25.36;60.27;101770.19;10488035;28;20234;-79
2023/06/06 07:47:58;;;;;;;;;;;;;;;25.55;58.93;101772.91;10499674;28;20041;-79
2023/06/06 07:52:59;;;;;;;15.77;11.60;;;;;;;25.44;59.17;101773.75;10515306;28;19927;-80
2023/06/06 07:58:01;;;;;;;17.23;9.53;;;;;;;25.51;61.25;101782.75;10496398;28;20115;-81
2023/06/06 08:03:02;;;;;;;15.30;9.60;;;;;;;26.05;55.32;101771.06;10506491;28;20320;-80
2023/06/06 08:08:05;;;;;;;18.55;10.48;;;;;;;25.91;59.98;101768.38;10484938;28;20040;-77
2023/06/06 08:13:06;;;;;;;17.27;10.50;;;;;;;26.04;59.48;101766.59;10470321;28;20115;-77
2023/06/06 08:18:07;;;;;;;14.60;9.55;;;;;;;26.61;57.28;101770.88;10494220;28;20387;-76
2023/06/06 08:23:07;;;;;;;16.13;10.53;;;;;;;26.99;53.90;101768.88;10520202;28;20064;-77
2023/06/06 08:28:08;;;;;;;16.97;8.40;;;;;;;26.97;53.67;101763.53;10525715;28;20040;-77
2023/06/06 08:33:08;;;;;;;15.67;9.00;;;;;;;26.93;54.05;101767.16;10506006;28;20394;-78
2023/06/06 08:38:09;;;;;;;13.57;8.90;;;;;;;27.57;52.38;101755.91;10505780;28;20123;-78
2023/06/06 08:43:13;;;;;;;14.40;9.70;;;;;;;27.34;53.50;101752.50;10499585;28;20043;-78
2023/06/06 08:48:14;;;;;;;16.80;12.15;;;;;;;27.70;55.86;101752.19;10519257;28;20441;-77
2023/06/06 08:53:15;;;;;;;17.98;11.07;;;;;;;28.15;52.68;101757.16;10504625;28;20036;-77
2023/06/06 08:58:15;;;;;;;19.20;9.27;;;;;;;28.73;50.00;101765.38;10481713;28;20120;-78
2023/06/06 09:03:17;;;;;;;19.05;9.88;;;;;;;28.47;52.66;101754.94;10481917;28;20044;-78
2023/06/06 09:08:19;;;;;;;22.90;12.13;;;;;;;28.67;51.72;101755.56;10507195;28;20442;-82
2023/06/06 09:13:19;;;;;;;14.80;10.90;;;;;;;28.48;50.58;101752.25;10477517;28;20040;-79
2023/06/06 09:18:20;;;;;;;19.33;10.50;;;;;;;28.61;49.35;101762.84;10487193;28;20076;-78
2023/06/06 09:23:20;;;;;;;16.07;9.10;;;;;;;28.82;49.24;101753.59;10505146;28;20177;-79
2023/06/06 09:28:21;;;;;;;39.90;12.32;;;;;;;29.46;46.98;101758.88;10506921;28;20074;-79
2023/06/06 09:33:21;;;;;;;13.10;9.43;;;;;;;29.92;46.17;101753.56;10490245;28;20051;-81
2023/06/06 09:38:22;;;;;;;20.40;11.47;;;;;;;30.09;45.99;101746.03;10525482;28;20028;-82
2023/06/06 09:43:23;;;;;;;14.98;8.10;;;;;;;30.13;45.77;101739.66;10490154;28;20269;-81
2023/06/06 09:48:25;;;;;;;;;;;;;;;30.30;44.45;101741.13;10507359;28;20040;-80
2023/06/06 09:53:27;;;;;;;18.30;10.75;;;;;;;30.22;44.31;101741.28;10525695;28;19916;-79
2023/06/06 09:58:27;;;;;;;17.35;9.77;;;;;;;30.30;44.95;101724.91;10490414;28;20035;-79
2023/06/06 10:03:30;;;;;;;15.98;8.63;;;;;;;30.27;45.02;101727.69;10489701;28;20048;-79
2023/06/06 10:08:30;;;;;;;15.95;8.52;;;;;;;30.35;44.77;101725.72;10523132;28;20024;-79
2023/06/06 10:13:31;;;;;;;15.07;8.25;;;;;;;30.51;40.64;101728.06;10506833;28;20560;-80
2023/06/06 10:18:31;;;;;;;14.40;8.32;;;;;;;30.79;41.85;101730.16;10489257;28;20033;-79
2023/06/06 10:23:32;;;;;;;13.05;7.72;;;;;;;30.78;44.45;101726.59;10505647;28;20078;-78
2023/06/06 10:28:34;;;;;;;12.13;7.43;;;;;;;30.96;42.75;101717.13;10473573;28;20059;-81
2023/06/06 10:33:37;;;;;;;19.60;9.45;;;;;;;31.45;40.82;101720.44;10501831;28;20270;-79
2023/06/06 10:38:38;;;;;;;16.95;8.05;;;;;;;31.51;41.73;101713.09;10520572;28;20047;-78
2023/06/06 10:43:41;;;;;;;14.38;7.47;;;;;;;31.74;40.98;101709.75;10505864;28;20123;-77
2023/06/06 10:48:45;;;;;;;9.02;6.30;;;;;;;31.59;38.11;101706.53;10531839;28;20039;-78
2023/06/06 10:53:46;;;;;;;9.80;6.80;;;;;;;30.80;40.34;101710.31;10530464;28;20472;-79
2023/06/06 10:58:46;;;;;;;14.40;7.77;;;;;;;30.89;39.72;101705.59;10512834;28;20115;-79
2023/06/06 11:03:47;;;;;;;14.47;7.13;;;;;;;31.22;38.71;101699.41;10514163;28;20262;-79
2023/06/06 11:08:57;;;;;;;8.90;6.57;;;;;;;31.27;41.03;101696.59;10529120;28;20123;-81
2023/06/06 11:14:07;;;;;;;8.73;6.30;;;;;;;31.69;38.25;101693.63;10495922;28;20036;-80
2023/06/06 11:19:19;;;;;;;12.70;5.50;;;;;;;31.84;36.71;101692.34;10495851;28;20123;-79
2023/06/06 11:24:19;;;;;;;10.98;6.00;;;;;;;31.80;42.62;101689.78;10497700;28;20463;-80
2023/06/06 11:29:23;;;;;;;7.32;5.95;;;;;;;32.25;36.10;101683.91;10511752;28;20111;-79
2023/06/06 11:34:23;;;;;;;12.82;5.70;;;;;;;31.64;38.64;101682.94;10512617;28;20063;-80
2023/06/06 11:39:26;;;;;;;15.67;6.07;;;;;;;31.96;40.11;101682.09;10510880;28;20059;-80
2023/06/06 11:44:32;;;;;;;9.45;5.35;;;;;;;32.10;35.55;101677.13;10530339;28;20274;-79
2023/06/06 11:49:43;;;;;;;10.10;4.32;;;;;;;31.84;38.94;101665.28;10510824;28;20040;-78
2023/06/06 11:54:53;;;;;;;10.98;5.75;;;;;;;32.29;36.75;101665.75;10511617;28;20089;-78
2023/06/06 11:59:59;;;;;;;9.90;4.72;;;;;;;32.47;38.26;101672.44;10511606;28;20515;-78
2023/06/06 12:04:59;;;;;;;9.05;3.90;;;;;;;32.58;35.24;101672.09;10511347;28;20084;-78
2023/06/06 12:10:00;;;;;;;7.20;4.55;;;;;;;32.61;34.86;101661.16;10509921;28;20036;-80
2023/06/06 12:15:00;;;;;;;;;;;;;;;32.58;35.22;101656.72;10543885;28;20376;-78
2023/06/06 12:20:05;;;;;;;7.83;5.10;;;;;;;32.23;35.21;101662.28;10528516;28;19928;-78
2023/06/06 12:25:06;;;;;;;7.15;4.03;;;;;;;32.30;33.75;101654.00;10526876;28;20472;-78
2023/06/06 12:30:08;;;;;;;14.93;5.13;;;;;;;32.12;34.68;101652.75;10492383;28;20044;-76
2023/06/06 12:35:08;;;;;;;9.02;3.95;;;;;;;32.54;34.69;101646.94;10544200;28;20024;-77
2023/06/06 12:40:15;;;;;;;8.63;3.72;;;;;;;32.38;35.50;101651.06;10493435;28;20111;-78
2023/06/06 12:45:16;;;;;;;13.00;4.45;;;;;;;32.70;33.53;101644.59;10510242;28;20105;-79
2023/06/06 12:50:17;;;;;;;;;;;;;;;32.43;35.19;101641.84;10527880;28;20111;-78
2023/06/06 12:55:18;;;;;;;18.43;4.30;;;;;;;31.70;33.14;101640.41;10509771;28;19920;-77
2023/06/06 13:00:19;;;;;;;5.88;3.35;;;;;;;31.06;35.26;101634.88;10475593;28;20075;-81
2023/06/06 13:05:19;;;;;;;;;;;;;;;30.82;35.50;101627.41;10527120;28;20035;-77
2023/06/06 13:10:20;;;;;;;5.47;3.13;;;;;;;31.02;35.06;101629.63;10527351;28;20370;-76
2023/06/06 13:15:21;;;;;;;6.35;3.63;;;;;;;31.80;36.67;101630.25;10526268;28;20467;-76
2023/06/06 13:20:21;;;;;;;5.63;3.63;;;;;;;32.03;34.05;101627.72;10526454;28;20425;-77
2023/06/06 13:25:22;;;;;;;5.03;3.25;;;;;;;31.98;35.21;101628.78;10525559;28;20148;-77
2023/06/06 13:30:23;;;;;;;5.75;3.92;;;;;;;31.79;34.26;101621.22;10526285;28;20130;-77
2023/06/06 13:35:24;;;;;;;4.72;3.00;;;;;;;31.99;34.15;101619.75;10526177;28;20409;-77
2023/06/06 13:40:24;;;;;;;8.15;3.85;;;;;;;32.04;33.89;101612.34;10526294;28;20190;-77
2023/06/06 13:45:25;;;;;;;;;;;;;;;32.34;31.03;101615.97;10526708;28;20484;-77
2023/06/06 13:50:27;;;;;;;5.43;2.83;;;;;;;32.19;30.22;101611.88;10525486;28;19920;-77
2023/06/06 13:55:28;;;;;;;9.10;4.32;;;;;;;32.00;29.82;101607.97;10507650;28;20043;-77
2023/06/06 14:00:32;;;;;;;6.57;3.72;;;;;;;32.10;30.62;101606.75;10507011;28;20379;-76
2023/06/06 14:05:32;;;;;;;8.18;2.75;;;;;;;31.94;29.41;101606.38;10508415;28;20040;-77
2023/06/06 14:10:33;;;;;;;;;;;;;;;32.18;29.14;101609.25;10521599;28;20061;-76
2023/06/06 14:15:34;;;;;;;6.50;2.88;;;;;;;31.92;28.63;101606.41;10522095;28;19923;-77
2023/06/06 14:20:36;;;;;;;4.72;2.88;;;;;;;31.57;30.06;101592.06;10494432;28;20071;-77
2023/06/06 14:25:37;;;;;;;6.20;2.80;;;;;;;31.90;30.46;101597.44;10490418;28;20040;-75
2023/06/06 14:30:38;;;;;;;6.40;3.58;;;;;;;31.16;30.61;101595.00;10477216;28;20076;-76
2023/06/06 14:35:43;;;;;;;23.33;4.28;;;;;;;29.67;32.40;101586.81;10498876;28;20040;-76
2023/06/06 14:40:45;;;;;;;4.95;3.20;;;;;;;28.98;32.90;101585.41;10497558;28;20036;-77
2023/06/06 14:45:46;;;;;;;8.98;3.13;;;;;;;29.21;34.58;101573.31;10525996;28;20047;-76
2023/06/06 14:50:46;;;;;;;5.50;2.67;;;;;;;29.89;33.36;101571.06;10487830;28;20059;-77
2023/06/06 14:55:48;;;;;;;6.72;3.05;;;;;;;30.07;33.41;101580.56;10474751;28;20043;-78
2023/06/06 15:00:48;;;;;;;5.57;3.40;;;;;;;29.00;31.42;101585.41;10516387;28;20040;-78
2023/06/06 15:05:49;;;;;;;7.07;3.30;;;;;;;27.72;34.45;101577.44;10503458;28;20479;-78
2023/06/06 15:10:49;;;;;;;11.53;3.83;;;;;;;26.75;38.72;101583.75;10529160;28;20036;-77
2023/06/06 15:15:50;;;;;;;5.77;2.70;;;;;;;26.41;36.83;101573.28;10527976;28;20047;-78
2023/06/06 15:20:50;;;;;;;4.77;2.50;;;;;;;26.34;36.50;101571.53;10512220;28;20126;-78
2023/06/06 15:25:51;;;;;;;19.13;4.97;;;;;;;26.55;36.86;101564.25;10528777;28;20365;-77
2023/06/06 15:30:56;;;;;;;12.07;2.80;;;;;;;26.65;35.93;101565.94;10501895;28;20046;-78
2023/06/06 15:35:57;;;;;;;5.10;2.38;;;;;;;27.13;35.05;101570.00;10513522;28;20044;-78
2023/06/06 15:40:57;;;;;;;4.90;3.30;;;;;;;27.20;34.08;101567.22;10527866;28;20036;-78
2023/06/06 15:45:58;;;;;;;5.63;3.40;;;;;;;27.10;37.32;101558.38;10515311;28;20552;-78
2023/06/06 15:50:58;;;;;;;6.40;2.80;;;;;;;27.09;38.05;101559.28;10509423;28;20036;-77
2023/06/06 15:55:59;;;;;;;6.70;3.20;;;;;;;26.95;37.30;101546.00;10509399;28;20068;-77
2023/06/06 16:01:00;;;;;;;8.80;3.10;;;;;;;26.45;38.18;101548.22;10523596;28;20132;-78
2023/06/06 16:06:00;;;;;;;6.47;3.20;;;;;;;25.84;39.37;101541.41;10529102;28;20072;-78
2023/06/06 16:11:01;;;;;;;7.20;3.60;;;;;;;25.79;39.75;101536.09;10472208;28;20127;-78
2023/06/06 16:16:02;;;;;;;10.20;4.13;;;;;;;25.75;40.08;101542.38;10486980;28;20119;-78
2023/06/06 16:21:02;;;;;;;8.87;3.77;;;;;;;25.67;41.17;101531.66;10524577;28;20387;-78
2023/06/06 16:26:03;;;;;;;9.00;3.37;;;;;;;25.56;39.46;101536.19;10511516;28;20429;-78
2023/06/06 16:31:03;;;;;;;10.30;4.40;;;;;;;25.61;40.11;101531.69;10523924;28;20072;-78
2023/06/06 16:36:04;;;;;;;7.77;3.43;;;;;;;25.43;39.38;101532.63;10478482;28;20119;-78
2023/06/06 16:41:05;;;;;;;8.13;3.30;;;;;;;25.46;40.03;101538.03;10467869;28;20047;-77
2023/06/06 16:46:05;;;;;;;7.63;4.07;;;;;;;25.68;41.10;101536.13;10500817;28;20131;-77
2023/06/06 16:51:06;;;;;;;5.53;3.40;;;;;;;25.76;38.61;101528.06;10523477;28;20040;-78
2023/06/06 16:56:06;;;;;;;5.50;3.60;;;;;;;25.77;40.08;101538.75;10490767;28;20174;-77
2023/06/06 17:01:07;;;;;;;7.87;3.67;;;;;;;25.71;40.13;101538.78;10488511;28;20043;-78
2023/06/06 17:06:07;;;;;;;7.87;4.63;;;;;;;25.73;40.62;101530.75;10487073;28;20157;-77
2023/06/06 17:11:08;;;;;;;11.53;3.80;;;;;;;25.93;41.45;101542.25;10526615;28;20119;-78
2023/06/06 17:16:09;;;;;;;5.23;3.43;;;;;;;25.90;43.24;101536.91;10468744;28;20389;-78
2023/06/06 17:21:10;;;;;;;9.00;4.50;;;;;;;25.76;40.77;101539.66;10483905;28;20148;-77
2023/06/06 17:26:10;;;;;;;6.82;4.88;;;;;;;25.48;42.44;101545.13;10514024;28;20066;-78
2023/06/06 17:31:11;;;;;;;5.27;3.53;;;;;;;25.25;41.89;101538.94;10507330;28;20523;-78
2023/06/06 17:36:12;;;;;;;9.77;3.87;;;;;;;25.05;42.22;101532.75;10523040;28;20047;-78
2023/06/06 17:41:12;;;;;;;7.63;4.13;;;;;;;25.02;41.68;101537.19;10508003;28;20506;-78
2023/06/06 17:46:13;;;;;;;8.20;3.87;;;;;;;24.96;41.55;101542.56;10455363;28;20083;-79
2023/06/06 17:51:13;;;;;;;10.40;4.73;;;;;;;25.12;43.23;101538.97;10506768;28;20071;-78
2023/06/06 17:56:14;;;;;;;8.47;3.37;;;;;;;25.14;44.26;101537.19;10504937;28;20044;-78
2023/06/06 18:01:14;;;;;;;8.67;3.97;;;;;;;24.86;45.05;101537.22;10521875;28;20060;-77
2023/06/06 18:06:18;;;;;;;25.57;6.23;;;;;;;24.62;45.35;101533.63;10521634;28;20076;-76
2023/06/06 18:11:18;;;;;;;6.32;4.07;;;;;;;24.32;45.66;101545.25;10482700;28;20032;-77
2023/06/06 18:16:19;;;;;;;9.70;4.83;;;;;;;23.92;46.37;101545.13;10497237;28;20115;-77
2023/06/06 18:21:20;;;;;;;9.90;3.43;;;;;;;23.53;47.36;101540.53;10515439;28;20044;-77
2023/06/06 18:26:21;;;;;;;15.47;4.47;;;;;;;23.18;48.82;101546.53;10524540;28;20123;-77
2023/06/06 18:31:22;;;;;;;8.20;4.32;;;;;;;22.87;49.40;101557.88;10522800;28;20036;-77
2023/06/06 18:36:22;;;;;;;19.50;3.93;;;;;;;22.53;51.29;101562.06;10523887;28;20123;-78
2023/06/06 18:41:25;;;;;;;7.20;3.97;;;;;;;22.22;51.53;101564.41;10520799;28;20094;-77
2023/06/06 18:46:26;;;;;;;7.28;3.65;;;;;;;21.89;52.91;101573.81;10504734;28;20468;-78
2023/06/06 18:51:26;;;;;;;7.50;3.67;;;;;;;21.57;55.93;101572.47;10504647;28;20063;-77
2023/06/06 18:56:27;;;;;;;7.33;3.57;;;;;;;21.17;61.88;101574.56;10482423;28;20071;-78
2023/06/06 19:01:27;;;;;;;6.77;3.80;;;;;;;20.78;75.51;101587.28;10464114;28;20093;-78
2023/06/06 19:06:28;;;;;;;5.80;3.70;;;;;;;20.45;91.13;101588.44;10467915;28;20131;-78
2023/06/06 19:11:28;;;;;;;7.50;3.57;;;;;;;19.97;97.59;101593.75;10472201;28;20121;-78
2023/06/06 19:16:29;;;;;;;5.17;3.37;;;;;;;19.55;98.53;101599.91;10469251;28;20037;-78
2023/06/06 19:21:29;;;;;;;7.10;3.67;;;;;;;19.12;100.00;101602.44;10517355;28;20444;-78
2023/06/06 19:26:30;;;;;;;7.55;3.60;;;;;;;18.63;100.00;101603.88;10530564;28;20428;-78
2023/06/06 19:31:31;;;;;;;15.02;4.72;;;;;;;18.27;100.00;101606.41;10508979;28;20051;-77
2023/06/06 19:36:32;;;;;;;10.80;5.80;;;;;;;17.97;100.00;101607.31;10489070;28;20051;-78
2023/06/06 19:41:32;;;;;;;9.23;3.80;;;;;;;17.67;100.00;101610.84;10504710;28;20098;-78
2023/06/06 19:46:33;;;;;;;6.03;3.80;;;;;;;17.41;100.00;101617.16;10497909;28;20127;-77
2023/06/06 19:51:34;;;;;;;12.27;4.95;;;;;;;17.14;100.00;101636.56;10506183;28;20043;-77
2023/06/06 19:56:35;;;;;;;8.30;3.72;;;;;;;16.80;100.00;101642.41;10513024;28;20028;-78
2023/06/06 20:01:35;;;;;;;17.27;4.45;;;;;;;16.52;100.00;101646.75;10480452;28;20445;-77
2023/06/06 20:06:37;;;;;;;12.55;4.25;;;;;;;16.74;100.00;101658.97;10525037;28;20174;-77
2023/06/06 20:11:39;;;;;;;8.77;5.07;;;;;;;17.21;100.00;101656.16;10509505;28;20036;-76
2023/06/06 20:16:40;;;;;;;9.80;5.00;;;;;;;17.89;100.00;101649.47;10524899;28;20036;-76
2023/06/06 20:21:40;;;;;;;10.23;6.18;;;;;;;18.20;100.00;101655.69;10505128;28;20123;-77
2023/06/06 20:26:41;;;;;;;11.82;6.25;;;;;;;18.36;100.00;101662.31;10526707;28;20071;-76
2023/06/06 20:31:41;;;;;;;12.80;6.55;;;;;;;18.38;100.00;101657.06;10510131;28;20043;-76
2023/06/06 20:36:42;;;;;;;10.18;5.38;;;;;;;18.23;100.00;101668.13;10501213;28;20063;-77
2023/06/06 20:41:43;;;;;;;11.57;6.43;;;;;;;18.14;100.00;101669.66;10484557;28;20143;-76
2023/06/06 20:46:43;;;;;;;12.10;5.82;;;;;;;18.06;100.00;101663.22;10505561;28;20024;-77
2023/06/06 20:51:45;;;;;;;9.57;6.50;;;;;;;17.81;100.00;101672.16;10522684;28;20089;-77
2023/06/06 20:56:46;;;;;;;13.17;7.93;;;;;;;17.67;100.00;101675.28;10503094;28;20365;-77
2023/06/06 21:01:46;;;;;;;10.07;6.00;;;;;;;17.67;100.00;101683.22;10509485;28;20032;-77
2023/06/06 21:06:47;;;;;;;12.32;5.68;;;;;;;17.63;100.00;101688.34;10508314;28;20058;-77
2023/06/06 21:11:50;;;;;;;10.07;6.50;;;;;;;17.48;100.00;101683.50;10491029;28;20127;-77
2023/06/06 21:16:50;;;;;;;12.65;7.30;;;;;;;17.34;100.00;101702.47;10510867;28;20462;-77
2023/06/06 21:21:51;;;;;;;13.73;6.30;;;;;;;17.35;100.00;101688.38;10485381;28;20056;-77
2023/06/06 21:26:52;;;;;;;18.20;9.52;;;;;;;17.23;100.00;101701.22;10506922;28;20138;-77
2023/06/06 21:31:53;;;;;;;14.60;7.70;;;;;;;17.22;100.00;101695.00;10507116;28;20040;-77
2023/06/06 21:36:53;;;;;;;15.85;7.65;;;;;;;17.25;100.00;101695.09;10525599;28;20302;-77
2023/06/06 21:41:54;;;;;;;12.25;6.45;;;;;;;17.20;100.00;101701.09;10507835;28;20149;-77
2023/06/06 21:46:54;;;;;;;16.70;6.82;;;;;;;17.13;100.00;101698.25;10474813;28;20123;-77
2023/06/06 21:51:55;;;;;;;13.85;8.07;;;;;;;17.08;100.00;101701.56;10484902;28;20115;-77
2023/06/06 21:56:55;;;;;;;18.13;8.75;;;;;;;17.05;100.00;101701.47;10518011;28;20109;-77
2023/06/06 22:01:56;;;;;;;17.08;8.32;;;;;;;17.13;100.00;101706.19;10491618;28;20123;-77
2023/06/06 22:07:02;;;;;;;16.80;9.80;;;;;;;17.09;100.00;101706.94;10501358;28;20558;-77
2023/06/06 22:12:03;;;;;;;18.27;9.43;;;;;;;16.94;100.00;101709.00;10507396;28;20121;-78
2023/06/06 22:17:04;;;;;;;16.10;8.15;;;;;;;16.76;100.00;101719.81;10496190;28;20066;-78
2023/06/06 22:22:04;;;;;;;17.98;9.25;;;;;;;16.69;100.00;101716.94;10510496;28;20041;-77
2023/06/06 22:27:05;;;;;;;17.10;9.90;;;;;;;16.65;100.00;101709.75;10492371;28;20052;-77
2023/06/06 22:32:06;;;;;;;16.08;9.07;;;;;;;16.68;100.00;101719.56;10493032;28;20044;-77
2023/06/06 22:37:06;;;;;;;17.25;8.90;;;;;;;16.74;100.00;101715.38;10498424;28;20043;-77
2023/06/06 22:42:07;;;;;;;18.33;11.70;;;;;;;16.75;100.00;101708.34;10472374;28;20393;-78
2023/06/06 22:47:07;;;;;;;17.63;9.63;;;;;;;16.79;100.00;101704.97;10490745;28;20037;-77